»·PEaware :: SWA1075 KDAL-KSLC

SWA1075 :: KDAL-KSLC

FLIGHT INFORMATION

Flight Status: Arrived
Operator:
Southwest Airlines
More flights by this operator :: More flights under this callsign
Pilot: Charles S. (11412)
Aircraft: BOEING 737-800
(B738)
More flights by this aircraft type
Origin: KDAL Dallas Love
United States
Destination: KSLC Salt Lake City Intl
United States
More flights between these airports :: More routes between these airports
Route: KKITY4 HUDAD PNH ALS JNC J12 HELPR LEEHY5
File this flight plan on PilotEdge
Remarks:
Altitude:
(Current/Filed)
40,000ft
Speed:
(Current/Filed)
115kts
Departed: 10-Sep-17 08:24 AM
Arrived: 10-Sep-17 11:11 AM
Distance/Time
Traveled:
867nm/2:47
Distance/Time
To Go:
Arrived

Flight Plot

Page will automatically refresh every two minutes.

Flight plan parsing failed; only flown route is shown


Map Options




Map Legend


Flown Route
Filed Route
Departure Airport
Arrival Airport
Navaid (VOR, NDB)
Fix

Horizontal Profiles

Position Reports

Time Latitude Longitude Heading Altitude Ground
Speed
10-Sep-17 08:21 32.845943 -96.852424 87 479ft 5kts
10-Sep-17 08:22 32.847376 -96.853236 353 480ft 20kts
10-Sep-17 08:23 32.847603 -96.856490 256 478ft 24kts
10-Sep-17 08:24 32.850021 -96.860231 317 475ft 0kts
10-Sep-17 08:25 32.850588 -96.862558 138 468ft 0kts
10-Sep-17 08:26 32.850586 -96.862556 138 468ft 0kts
10-Sep-17 08:27 32.850586 -96.862556 138 468ft 0kts
10-Sep-17 08:28 32.843914 -96.854957 133 477ft 140kts
10-Sep-17 08:29 32.807496 -96.810411 130 2112ft 220kts
10-Sep-17 08:30 32.766014 -96.760361 133 4314ft 220kts
10-Sep-17 08:31 32.729561 -96.718524 132 6125ft 227kts
10-Sep-17 08:32 32.668141 -96.724637 198 8304ft 247kts
10-Sep-17 08:33 32.617462 -96.780943 267 10062ft 303kts
10-Sep-17 08:34 32.612362 -96.877961 271 11800ft 312kts
10-Sep-17 08:35 32.608792 -96.981123 269 13601ft 321kts
10-Sep-17 08:36 32.605282 -97.085478 270 15384ft 323kts
10-Sep-17 08:37 32.604958 -97.191830 277 17182ft 324kts
10-Sep-17 08:38 32.612366 -97.294610 278 18901ft 348kts
10-Sep-17 08:39 32.638869 -97.355786 314 19931ft 377kts
10-Sep-17 08:40 32.702237 -97.430447 320 21384ft 392kts
10-Sep-17 08:41 32.784228 -97.517430 320 23037ft 401kts
10-Sep-17 08:42 32.868774 -97.606458 319 24641ft 411kts
10-Sep-17 08:43 32.953877 -97.697213 318 26245ft 422kts
10-Sep-17 08:44 33.016559 -97.812838 295 27849ft 425kts
10-Sep-17 08:45 33.062664 -97.940044 295 29473ft 417kts
10-Sep-17 08:46 33.108755 -98.064253 297 30579ft 410kts
10-Sep-17 08:47 33.157397 -98.187725 297 32091ft 409kts
10-Sep-17 08:48 33.199612 -98.305529 291 33537ft 404kts
10-Sep-17 08:49 33.240848 -98.429183 296 35039ft 401kts
10-Sep-17 08:50 33.287933 -98.548690 297 36552ft 396kts
10-Sep-17 08:51 33.331759 -98.667931 293 37632ft 404kts
10-Sep-17 08:52 33.375675 -98.792610 293 38632ft 414kts
10-Sep-17 08:53 33.421598 -98.918807 294 39630ft 423kts
10-Sep-17 08:54 33.470044 -99.048248 293 40249ft 430kts
10-Sep-17 08:55 33.518219 -99.180479 293 40300ft 436kts
10-Sep-17 08:56 33.564354 -99.306434 293 40303ft 436kts
10-Sep-17 08:57 33.615403 -99.437451 300 40296ft 434kts
10-Sep-17 08:58 33.692560 -99.548198 310 40292ft 433kts
10-Sep-17 08:59 33.771808 -99.656223 309 40296ft 433kts
10-Sep-17 09:00 33.850867 -99.765010 309 40311ft 433kts
10-Sep-17 09:01 33.930039 -99.873820 310 40327ft 433kts
10-Sep-17 09:02 34.009211 -99.982176 310 40326ft 433kts
10-Sep-17 09:03 34.082558 -100.083321 310 40330ft 433kts
10-Sep-17 09:04 34.107486 -100.117744 310 40329ft 434kts
10-Sep-17 09:05 34.107486 -100.117744 310 40329ft 434kts
10-Sep-17 09:06 34.107486 -100.117744 310 40329ft 434kts
10-Sep-17 09:07 34.107486 -100.117744 310 40329ft 434kts
10-Sep-17 09:08 34.107486 -100.117744 310 40329ft 434kts
10-Sep-17 09:09 34.107486 -100.117744 310 40329ft 434kts
10-Sep-17 09:10 34.150837 -100.177805 308 40328ft 433kts
10-Sep-17 09:11 34.182577 -100.224125 308 40329ft 434kts
10-Sep-17 09:12 34.182577 -100.224125 308 40329ft 434kts
10-Sep-17 09:13 34.182577 -100.224125 308 40329ft 434kts
10-Sep-17 09:14 34.182577 -100.224125 308 40329ft 434kts
10-Sep-17 09:15 34.182577 -100.224125 308 40329ft 434kts
10-Sep-17 09:16 34.182577 -100.224125 308 40329ft 434kts
10-Sep-17 09:17 34.182577 -100.224125 308 40329ft 434kts
10-Sep-17 09:18 34.182577 -100.224125 308 40329ft 434kts
10-Sep-17 09:19 34.182577 -100.224125 308 40329ft 434kts
10-Sep-17 09:20 34.182577 -100.224125 308 40329ft 434kts
10-Sep-17 09:21 34.182577 -100.224125 308 40329ft 434kts
10-Sep-17 09:22 34.182577 -100.224125 308 40329ft 434kts
10-Sep-17 09:23 34.182577 -100.224125 308 40329ft 434kts
10-Sep-17 09:24 34.182577 -100.224125 308 40329ft 434kts
10-Sep-17 09:25 34.182577 -100.224125 308 40329ft 434kts
10-Sep-17 09:26 34.232559 -100.306765 303 40320ft 433kts
10-Sep-17 09:27 34.304500 -100.421309 309 40322ft 429kts
10-Sep-17 09:28 34.381398 -100.531126 309 40346ft 430kts
10-Sep-17 09:29 34.458633 -100.641847 307 40319ft 432kts
10-Sep-17 09:30 34.535725 -100.750997 310 40335ft 426kts
10-Sep-17 09:31 34.612102 -100.858724 309 40310ft 430kts
10-Sep-17 09:32 34.682881 -100.959379 305 40286ft 430kts
10-Sep-17 09:33 34.757368 -101.069937 307 40332ft 430kts
10-Sep-17 09:34 34.834538 -101.179096 309 40342ft 429kts
10-Sep-17 09:35 34.913062 -101.289201 308 40340ft 433kts
10-Sep-17 09:36 34.991289 -101.399746 311 40347ft 429kts
10-Sep-17 09:37 35.069489 -101.508397 309 40355ft 429kts
10-Sep-17 09:38 35.145018 -101.618072 311 40355ft 429kts
10-Sep-17 09:39 35.230136 -101.717361 294 40325ft 436kts
10-Sep-17 09:40 35.283123 -101.847626 303 40356ft 434kts
10-Sep-17 09:41 35.348797 -101.971774 302 40350ft 440kts
10-Sep-17 09:42 35.414835 -102.097499 300 40346ft 440kts
10-Sep-17 09:43 35.479603 -102.222292 300 40320ft 439kts
10-Sep-17 09:44 35.545217 -102.346734 299 40324ft 439kts
10-Sep-17 09:45 35.609996 -102.473139 299 40337ft 440kts
10-Sep-17 09:46 35.668062 -102.604758 301 40338ft 439kts
10-Sep-17 09:47 35.727840 -102.723183 301 40342ft 439kts
10-Sep-17 09:48 35.793916 -102.848451 302 40330ft 438kts
10-Sep-17 09:49 35.858847 -102.970164 302 40349ft 439kts
10-Sep-17 09:50 35.925246 -103.092181 301 40334ft 444kts
10-Sep-17 09:51 35.975021 -103.201645 300 40333ft 445kts
10-Sep-17 09:52 36.053874 -103.337145 301 40313ft 448kts
10-Sep-17 09:53 36.119789 -103.464890 302 40310ft 446kts
10-Sep-17 09:54 36.189004 -103.591325 302 40302ft 449kts
10-Sep-17 09:55 36.254861 -103.719936 302 40327ft 448kts
10-Sep-17 09:56 36.309480 -103.827829 296 40346ft 449kts
10-Sep-17 09:57 36.314812 -103.840035 297 40351ft 448kts
10-Sep-17 09:58 36.314812 -103.840035 297 40351ft 448kts
10-Sep-17 09:59 36.314812 -103.840035 297 40351ft 448kts
10-Sep-17 10:00 36.330144 -103.871426 302 40364ft 447kts
10-Sep-17 10:01 36.409776 -104.020001 303 40392ft 448kts
10-Sep-17 10:02 36.467604 -104.127181 303 40381ft 447kts
10-Sep-17 10:03 36.535715 -104.255351 302 40397ft 449kts
10-Sep-17 10:04 36.592097 -104.360925 300 40385ft 448kts
10-Sep-17 10:05 36.658433 -104.490007 301 40400ft 447kts
10-Sep-17 10:06 36.726447 -104.619596 300 40391ft 447kts
10-Sep-17 10:07 36.793173 -104.745687 301 40431ft 449kts
10-Sep-17 10:08 36.857965 -104.872130 300 40397ft 448kts
10-Sep-17 10:09 36.925283 -105.001698 300 40431ft 448kts
10-Sep-17 10:10 36.990464 -105.132690 299 40513ft 448kts
10-Sep-17 10:11 37.057571 -105.262091 300 40525ft 448kts
10-Sep-17 10:12 37.125412 -105.389750 301 40512ft 449kts
10-Sep-17 10:13 37.185934 -105.513711 302 40500ft 449kts
10-Sep-17 10:14 37.255929 -105.640693 303 40481ft 449kts
10-Sep-17 10:15 37.323790 -105.769347 302 40488ft 449kts
10-Sep-17 10:16 37.393395 -105.897278 304 40475ft 449kts
10-Sep-17 10:17 37.466000 -106.018804 305 40483ft 449kts
10-Sep-17 10:18 37.541051 -106.143540 305 40473ft 448kts
10-Sep-17 10:19 37.616145 -106.268420 306 40475ft 448kts
10-Sep-17 10:20 37.688501 -106.391128 305 40474ft 448kts
10-Sep-17 10:21 37.761403 -106.514934 305 40480ft 448kts
10-Sep-17 10:22 37.831623 -106.634267 305 40492ft 448kts
10-Sep-17 10:23 37.903696 -106.760142 303 40498ft 448kts
10-Sep-17 10:24 37.971604 -106.891430 300 40502ft 447kts
10-Sep-17 10:25 38.038332 -107.023945 300 40499ft 455kts
10-Sep-17 10:26 38.106845 -107.156507 299 40496ft 455kts
10-Sep-17 10:27 38.171817 -107.293587 297 40516ft 455kts
10-Sep-17 10:28 38.238073 -107.429901 298 40454ft 455kts
10-Sep-17 10:29 38.305392 -107.566198 300 40421ft 455kts
10-Sep-17 10:30 38.371730 -107.702620 297 40398ft 456kts
10-Sep-17 10:31 38.438363 -107.839955 300 40402ft 456kts
10-Sep-17 10:32 38.505775 -107.975648 301 40402ft 457kts
10-Sep-17 10:33 38.574057 -108.110645 298 40394ft 457kts
10-Sep-17 10:34 38.640606 -108.247656 300 40378ft 457kts
10-Sep-17 10:35 38.702422 -108.371233 298 40355ft 456kts
10-Sep-17 10:36 38.753140 -108.466300 299 40335ft 457kts
10-Sep-17 10:37 38.822002 -108.597161 301 40322ft 456kts
10-Sep-17 10:38 38.887870 -108.731013 299 40341ft 455kts
10-Sep-17 10:39 38.956465 -108.866588 299 40320ft 453kts
10-Sep-17 10:40 39.024253 -109.002851 300 40325ft 450kts
10-Sep-17 10:41 39.091742 -109.136635 300 40322ft 450kts
10-Sep-17 10:42 39.156919 -109.268600 299 40316ft 450kts
10-Sep-17 10:43 39.222152 -109.404947 299 40310ft 449kts
10-Sep-17 10:44 39.284987 -109.537698 299 40302ft 450kts
10-Sep-17 10:45 39.348361 -109.671628 298 40301ft 450kts
10-Sep-17 10:46 39.410306 -109.803749 298 40301ft 449kts
10-Sep-17 10:47 39.471181 -109.934083 298 40292ft 450kts
10-Sep-17 10:48 39.532670 -110.067171 297 39025ft 446kts
10-Sep-17 10:49 39.581188 -110.171907 297 37936ft 436kts
10-Sep-17 10:50 39.641325 -110.304319 298 36460ft 425kts
10-Sep-17 10:51 39.700941 -110.431040 297 34156ft 406kts
10-Sep-17 10:52 39.708564 -110.447719 297 33847ft 403kts
10-Sep-17 10:53 39.798832 -110.660294 293 29834ft 374kts
10-Sep-17 10:54 39.843730 -110.779197 292 27767ft 375kts
10-Sep-17 10:55 39.887607 -110.897355 292 25813ft 364kts
10-Sep-17 10:56 39.931830 -111.012647 294 23818ft 354kts
10-Sep-17 10:57 39.974959 -111.125924 293 21813ft 346kts
10-Sep-17 10:58 40.015752 -111.239153 292 19794ft 363kts
10-Sep-17 10:59 40.057117 -111.353359 294 18225ft 340kts
10-Sep-17 11:00 40.097617 -111.464305 290 16828ft 335kts
10-Sep-17 11:01 40.131439 -111.571253 284 15596ft 331kts
10-Sep-17 11:02 40.171058 -111.675308 311 14316ft 326kts
10-Sep-17 11:03 40.228350 -111.756108 312 13163ft 281kts
10-Sep-17 11:04 40.284113 -111.824618 321 12123ft 277kts
10-Sep-17 11:05 40.344524 -111.871325 330 11350ft 242kts
10-Sep-17 11:06 40.404972 -111.912807 330 11155ft 236kts
10-Sep-17 11:07 40.467481 -111.929479 351 10505ft 239kts
10-Sep-17 11:08 40.524272 -111.945624 344 9300ft 209kts
10-Sep-17 11:09 40.573239 -111.951354 355 8277ft 199kts
10-Sep-17 11:10 40.620727 -111.954531 355 7324ft 194kts
10-Sep-17 11:11 40.660409 -111.959344 357 6502ft 190kts
10-Sep-17 11:12 40.705735 -111.965568 352 5588ft 164kts
10-Sep-17 11:13 40.745011 -111.969812 354 4847ft 155kts
10-Sep-17 11:14 40.783871 -111.974214 356 4226ft 124kts
10-Sep-17 11:15 40.795325 -111.976573 326 4225ft 16kts
10-Sep-17 11:16 40.791503 -111.977211 171 4224ft 17kts

Navigation Log

Ident Type
Flight plan parsing failed, navigation log unavailable